Time;durP1;ratioP1;P1;durP2;ratioP2;P2;SDS_P1;SDS_P2;PMS_P1;PMS_P2;Temp;Humidity;BMP_temperature;BMP_pressure;BME280_temperature;BME280_humidity;BME280_pressure;Samples;Min_cycle;Max_cycle;Signal;HPM_P1;HPM_P2
2022/05/31 00:00:59;;;;;;;5.30;4.05;;;;;;;15.96;52.43;99775.81;5044967;28;20048;-74
2022/05/31 00:03:23;;;;;;;4.63;3.78;;;;;;;15.96;52.42;99775.81;5062442;28;20047;-72
2022/05/31 00:05:49;;;;;;;8.35;3.70;;;;;;;16.00;52.60;99772.84;5060128;28;20039;-72
2022/05/31 00:08:13;;;;;;;9.10;4.25;;;;;;;15.98;52.33;99779.22;5079695;28;20031;-72
2022/05/31 00:10:38;;;;;;;8.05;4.30;;;;;;;15.97;52.66;99779.34;5061457;28;20050;-71
2022/05/31 00:13:03;;;;;;;7.38;3.90;;;;;;;15.94;52.47;99775.09;5079779;28;20078;-72
2022/05/31 00:15:40;;;;;;;9.30;4.85;;;;;;;15.98;52.44;99773.81;5078214;28;20118;-75
2022/05/31 00:18:05;;;;;;;6.13;4.32;;;;;;;15.91;53.05;99772.66;5045018;28;20044;-71
2022/05/31 00:20:30;;;;;;;11.82;4.70;;;;;;;15.98;52.49;99781.03;5045292;28;20050;-71
2022/05/31 00:22:55;;;;;;;9.30;4.78;;;;;;;15.97;52.85;99782.88;5075986;28;20039;-73
2022/05/31 00:25:20;;;;;;;11.15;5.25;;;;;;;15.92;53.07;99786.97;5058747;28;20096;-71
2022/05/31 00:27:45;;;;;;;7.75;3.95;;;;;;;15.83;53.51;99785.97;5078822;28;20039;-71
2022/05/31 00:30:11;;;;;;;8.48;4.72;;;;;;;15.82;53.79;99786.97;5061655;28;20047;-71
2022/05/31 00:32:40;;;;;;;7.47;4.90;;;;;;;15.83;53.79;99788.66;5077882;28;20069;-71
2022/05/31 00:35:15;;;;;;;7.80;4.50;;;;;;;15.92;53.37;99784.28;5060784;28;20043;-75
2022/05/31 00:37:40;;;;;;;7.20;4.22;;;;;;;15.89;53.01;99787.28;5077152;28;20031;-72
2022/05/31 00:40:06;;;;;;;13.75;5.88;;;;;;;15.89;53.24;99796.19;5053836;28;20050;-71
2022/05/31 00:42:47;;;;;;;7.97;4.15;;;;;;;16.01;53.14;99799.59;5074938;28;20520;-69
2022/05/31 00:45:12;;;;;;;8.00;4.25;;;;;;;15.95;52.59;99798.31;5059836;28;20043;-73
2022/05/31 00:47:37;;;;;;;7.95;4.85;;;;;;;16.03;52.49;99794.09;5061876;28;20590;-69
2022/05/31 00:50:17;;;;;;;10.02;4.13;;;;;;;16.05;52.57;99798.31;5059340;28;20089;-72
2022/05/31 00:52:47;;;;;;;8.73;4.63;;;;;;;15.94;52.99;99803.81;5052737;28;20498;-69
2022/05/31 00:55:38;;;;;;;12.88;4.72;;;;;;;16.07;52.47;99799.03;5063133;28;20067;-69
2022/05/31 00:58:12;;;;;;;6.82;4.18;;;;;;;15.88;53.42;99790.94;5054586;28;20441;-69
2022/05/31 01:00:39;;;;;;;17.05;4.10;;;;;;;15.90;53.23;99799.72;5081904;28;20043;-72
2022/05/31 01:03:05;;;;;;;13.18;3.72;;;;;;;15.93;53.53;99791.34;5024653;28;20122;-70
2022/05/31 01:05:30;;;;;;;4.20;3.40;;;;;;;15.88;54.21;99796.31;5081011;28;20036;-69
2022/05/31 01:07:55;;;;;;;8.50;4.20;;;;;;;15.70;54.94;99797.97;5080116;28;20093;-67
2022/05/31 01:10:20;;;;;;;9.25;4.63;;;;;;;15.51;55.61;99802.28;5044118;28;20047;-70
2022/05/31 01:13:04;;;;;;;10.00;4.22;;;;;;;15.33;56.62;99797.72;5058757;28;20081;-69
2022/05/31 01:15:49;;;;;;;5.68;3.53;;;;;;;15.23;56.86;99792.31;5075579;28;20043;-66
2022/05/31 01:18:43;;;;;;;6.68;3.38;;;;;;;15.23;57.51;99803.91;5012187;28;20099;-66
2022/05/31 01:21:26;;;;;;;7.72;4.45;;;;;;;15.20;57.90;99806.84;5014099;28;20114;-67
2022/05/31 01:24:14;;;;;;;8.15;3.47;;;;;;;15.18;58.23;99808.81;4998570;28;20562;-66
2022/05/31 01:26:58;;;;;;;8.65;3.83;;;;;;;15.06;59.03;99807.19;4999119;28;20045;-64
2022/05/31 01:29:33;;;;;;;5.63;3.47;;;;;;;14.92;59.90;99814.75;5040742;28;20048;-67
2022/05/31 01:32:03;;;;;;;7.40;3.75;;;;;;;14.79;60.01;99814.94;5053220;28;20396;-67
2022/05/31 01:34:52;;;;;;;5.63;3.42;;;;;;;14.77;60.90;99804.38;5052204;28;20205;-71
2022/05/31 01:37:17;;;;;;;6.50;3.20;;;;;;;14.71;60.55;99806.72;5058014;28;20036;-68
2022/05/31 01:39:50;;;;;;;4.43;3.28;;;;;;;14.72;60.92;99813.78;5057456;28;20047;-67
2022/05/31 01:42:35;;;;;;;5.38;3.13;;;;;;;14.64;60.90;99814.47;5038342;28;20040;-66
2022/05/31 01:45:06;;;;;;;7.30;3.45;;;;;;;14.59;60.89;99807.78;5051171;28;20044;-67
2022/05/31 01:47:32;;;;;;;5.30;3.10;;;;;;;14.66;61.67;99817.00;5054562;28;20392;-73
2022/05/31 01:49:57;;;;;;;4.95;3.40;;;;;;;14.65;61.04;99813.47;5041321;28;20074;-74
2022/05/31 01:52:23;;;;;;;5.75;3.53;;;;;;;14.72;61.16;99800.38;5057111;28;20074;-72
2022/05/31 01:54:49;;;;;;;4.97;3.70;;;;;;;14.64;61.58;99806.41;5026553;28;20134;-76
2022/05/31 01:57:16;;;;;;;5.88;3.13;;;;;;;14.61;61.46;99805.81;5063032;28;20505;-76
2022/05/31 01:59:46;;;;;;;4.78;3.10;;;;;;;14.68;61.72;99813.19;5063591;28;20050;-70
2022/05/31 02:02:15;;;;;;;7.68;3.42;;;;;;;14.55;62.32;99815.25;5067966;28;20035;-73
2022/05/31 02:04:40;;;;;;;10.55;3.13;;;;;;;14.44;62.54;99816.16;5049087;28;20075;-72
2022/05/31 02:07:15;;;;;;;4.57;3.80;;;;;;;14.45;62.29;99815.16;5063537;28;20100;-71
2022/05/31 02:09:46;;;;;;;5.43;3.50;;;;;;;14.34;63.57;99803.59;5061031;28;20058;-75
2022/05/31 02:12:19;;;;;;;6.43;3.40;;;;;;;14.34;62.93;99803.59;5023403;28;20031;-74
2022/05/31 02:15:00;;;;;;;4.00;3.28;;;;;;;14.32;64.01;99805.59;5060011;28;20049;-77
2022/05/31 02:17:25;;;;;;;6.43;3.53;;;;;;;14.31;63.85;99809.25;5044416;28;20039;-78
2022/05/31 02:20:13;;;;;;;5.15;3.00;;;;;;;14.20;63.82;99817.34;5062225;28;20070;-77
2022/05/31 02:22:40;;;;;;;4.82;3.20;;;;;;;14.26;63.62;99816.81;5061127;28;20040;-78
2022/05/31 02:25:05;;;;;;;6.25;3.53;;;;;;;14.20;64.46;99820.03;5043107;28;20051;-74
2022/05/31 02:27:30;;;;;;;4.15;3.03;;;;;;;14.14;64.90;99816.00;5060839;28;20044;-75
2022/05/31 02:29:55;;;;;;;6.50;3.35;;;;;;;14.09;64.83;99816.41;5060327;28;20079;-76
2022/05/31 02:32:20;;;;;;;4.93;3.13;;;;;;;14.06;64.89;99821.16;5022896;28;20047;-72
2022/05/31 02:34:47;;;;;;;5.00;3.60;;;;;;;14.09;65.75;99819.09;5043777;28;20035;-75
2022/05/31 02:37:16;;;;;;;4.32;3.92;;;;;;;14.04;65.57;99817.75;5025129;28;20059;-75
2022/05/31 02:39:40;;;;;;;9.35;3.67;;;;;;;14.08;65.88;99821.91;5059245;28;20086;-76
2022/05/31 02:42:06;;;;;;;5.95;3.80;;;;;;;13.98;65.72;99824.50;5056448;28;20059;-76
2022/05/31 02:44:31;;;;;;;6.68;3.58;;;;;;;13.94;66.17;99822.19;5036041;28;20038;-76
2022/05/31 02:46:57;;;;;;;7.53;3.72;;;;;;;13.87;67.09;99824.53;5041270;28;20047;-76
2022/05/31 02:49:22;;;;;;;5.75;3.50;;;;;;;13.75;68.08;99829.06;5036373;28;20039;-77
2022/05/31 02:51:47;;;;;;;9.27;4.50;;;;;;;13.79;67.88;99835.00;5038812;28;20094;-75
2022/05/31 02:54:15;;;;;;;7.93;4.22;;;;;;;13.81;67.63;99841.09;5022000;28;20521;-72
2022/05/31 02:56:58;;;;;;;6.50;4.38;;;;;;;13.77;67.85;99836.94;5066539;28;20043;-72
2022/05/31 02:59:41;;;;;;;6.35;3.15;;;;;;;13.73;68.05;99830.16;5071434;28;20040;-72
2022/05/31 03:02:35;;;;;;;7.22;3.80;;;;;;;13.72;68.18;99839.16;5059659;28;20383;-71
2022/05/31 03:05:18;;;;;;;11.05;4.03;;;;;;;13.61;68.45;99840.03;5054673;28;20038;-73
2022/05/31 03:08:02;;;;;;;7.22;3.80;;;;;;;13.69;69.07;99842.94;5050706;28;20048;-73
2022/05/31 03:10:33;;;;;;;3.97;3.35;;;;;;;13.62;69.48;99846.25;5036244;28;20063;-71
2022/05/31 03:12:58;;;;;;;5.03;3.15;;;;;;;13.71;68.31;99850.84;5090948;28;20040;-73
2022/05/31 03:15:25;;;;;;;5.20;3.85;;;;;;;13.70;69.16;99847.31;5070241;28;20047;-74
2022/05/31 03:17:57;;;;;;;5.47;3.53;;;;;;;13.63;69.87;99845.28;5065228;28;20136;-73
2022/05/31 03:20:26;;;;;;;4.25;3.47;;;;;;;13.49;70.78;99856.25;5065989;28;20620;-72
2022/05/31 03:23:09;;;;;;;6.22;3.72;;;;;;;13.45;70.85;99855.63;5083710;28;20040;-73
2022/05/31 03:25:35;;;;;;;5.93;3.33;;;;;;;13.24;71.22;99851.97;5060466;28;20090;-73
2022/05/31 03:28:04;;;;;;;7.50;3.58;;;;;;;13.25;71.78;99849.19;5077094;28;20051;-74
2022/05/31 03:30:29;;;;;;;10.88;3.80;;;;;;;13.21;72.40;99847.72;5077929;28;20122;-73
2022/05/31 03:32:56;;;;;;;7.28;3.67;;;;;;;13.24;72.22;99850.16;5059175;28;20161;-72
2022/05/31 03:35:22;;;;;;;7.22;4.00;;;;;;;13.27;72.18;99852.59;5041752;28;20131;-72
2022/05/31 03:37:48;;;;;;;4.35;3.20;;;;;;;13.35;72.10;99857.34;5025243;28;20044;-73
2022/05/31 03:43:17;;;;;;;6.38;2.70;;;;;;;13.33;72.61;99860.13;5058982;28;20070;-72
2022/05/31 03:45:54;;;;;;;4.65;3.47;;;;;;;13.23;73.13;99859.16;5059691;28;20039;-72
2022/05/31 03:48:39;;;;;;;4.20;3.75;;;;;;;13.24;72.42;99854.66;5076460;28;20452;-73
2022/05/31 03:51:09;;;;;;;7.03;3.55;;;;;;;13.34;72.14;99859.16;5058389;28;20039;-73
2022/05/31 03:53:34;;;;;;;4.05;2.90;;;;;;;13.33;72.07;99852.09;5058449;28;20043;-73
2022/05/31 03:56:06;;;;;;;5.78;3.33;;;;;;;13.31;72.65;99861.25;5058634;28;20089;-74
2022/05/31 03:58:36;;;;;;;3.95;3.20;;;;;;;13.37;72.73;99853.56;5024966;28;20074;-73
2022/05/31 04:01:11;;;;;;;5.75;3.30;;;;;;;13.54;71.50;99862.09;5046295;28;20043;-73
2022/05/31 04:03:36;;;;;;;6.30;3.33;;;;;;;13.59;71.18;99863.41;5026816;28;20051;-73
2022/05/31 04:06:01;;;;;;;5.18;3.70;;;;;;;13.55;71.14;99856.59;5059179;28;20878;-73
2022/05/31 04:08:26;;;;;;;3.95;2.92;;;;;;;13.68;71.25;99877.88;5059216;28;20047;-73
2022/05/31 04:10:51;;;;;;;4.88;3.25;;;;;;;13.59;70.95;99854.53;5033324;28;20559;-72
2022/05/31 04:13:17;;;;;;;4.70;2.92;;;;;;;13.59;71.48;99865.22;5059641;28;20079;-72
2022/05/31 04:16:08;;;;;;;5.03;3.03;;;;;;;13.63;71.15;99858.66;4960868;28;20050;-73
2022/05/31 04:18:37;;;;;;;5.13;3.30;;;;;;;13.58;71.42;99852.81;4950725;28;20144;-71
2022/05/31 04:21:05;;;;;;;5.07;3.67;;;;;;;13.48;72.56;99855.38;4959419;28;20073;-73
2022/05/31 04:26:38;;;;;;;6.93;3.88;;;;;;;13.64;71.78;99863.06;4974220;28;20063;-73
2022/05/31 04:29:21;;;;;;;6.07;4.35;;;;;;;13.65;71.14;99854.91;4985228;28;20057;-72
2022/05/31 04:32:07;;;;;;;5.63;3.72;;;;;;;13.71;71.28;99858.88;4973329;28;20062;-74
2022/05/31 04:35:01;;;;;;;4.80;3.60;;;;;;;13.58;72.04;99852.81;4964669;28;20460;-72
2022/05/31 04:37:28;;;;;;;8.68;3.60;;;;;;;13.61;71.96;99849.91;4973087;28;20136;-72
2022/05/31 04:39:59;;;;;;;5.40;3.58;;;;;;;13.61;72.03;99855.25;4973528;28;20495;-71
2022/05/31 04:42:44;;;;;;;3.97;3.45;;;;;;;13.62;71.71;99843.56;4973283;28;20054;-72
2022/05/31 04:45:32;;;;;;;9.23;4.47;;;;;;;13.47;72.51;99850.16;4941276;28;20046;-72
2022/05/31 04:48:10;;;;;;;7.25;4.05;;;;;;;13.37;73.29;99850.03;4945127;28;20062;-73
2022/05/31 04:50:35;;;;;;;5.20;3.28;;;;;;;13.43;72.52;99844.19;4943344;28;20088;-72
2022/05/31 04:53:00;;;;;;;6.90;3.88;;;;;;;13.26;73.29;99856.25;4984418;28;20061;-74
2022/05/31 04:55:28;;;;;;;6.93;4.18;;;;;;;13.16;73.82;99847.22;5017298;28;20515;-73
2022/05/31 04:57:53;;;;;;;6.25;3.25;;;;;;;13.13;74.43;99851.94;5037822;28;20052;-73
2022/05/31 05:00:18;;;;;;;8.05;4.32;;;;;;;13.03;75.15;99851.81;5037953;28;20173;-72
2022/05/31 05:03:03;;;;;;;5.45;3.58;;;;;;;13.04;75.57;99849.03;5020074;28;20052;-74
2022/05/31 05:05:32;;;;;;;7.53;4.70;;;;;;;12.86;76.21;99849.59;5019568;28;20032;-75
2022/05/31 05:08:04;;;;;;;7.93;4.40;;;;;;;12.82;76.60;99846.31;5019449;28;20095;-73
2022/05/31 05:10:33;;;;;;;9.57;4.63;;;;;;;12.69;77.16;99843.72;5036120;28;20052;-74
2022/05/31 05:13:24;;;;;;;7.35;5.00;;;;;;;12.72;77.95;99848.84;5016227;28;20056;-73
2022/05/31 05:16:14;;;;;;;10.38;5.57;;;;;;;12.82;77.81;99842.78;5036177;28;20490;-72
2022/05/31 05:18:41;;;;;;;7.60;4.93;;;;;;;12.78;78.11;99839.47;5020131;28;20063;-71
2022/05/31 05:21:10;;;;;;;7.65;5.45;;;;;;;12.84;78.35;99838.16;5077687;28;20078;-72
2022/05/31 05:23:37;;;;;;;8.48;4.43;;;;;;;12.92;78.16;99843.78;5077584;28;20122;-70
2022/05/31 05:26:08;;;;;;;7.72;5.50;;;;;;;12.91;78.04;99834.03;5077792;28;20035;-71
2022/05/31 05:31:45;;;;;;;7.43;4.30;;;;;;;13.09;77.38;99827.25;5074511;28;20562;-73
2022/05/31 05:34:38;;;;;;;5.57;4.25;;;;;;;13.17;77.25;99832.88;5078630;28;20054;-71
2022/05/31 05:37:13;;;;;;;5.80;3.33;;;;;;;13.20;77.41;99831.78;5060437;28;20035;-72
2022/05/31 05:39:39;;;;;;;8.07;4.25;;;;;;;13.24;77.09;99827.88;5060454;28;20050;-73
2022/05/31 05:42:28;;;;;;;8.52;4.93;;;;;;;13.27;77.04;99819.63;5055832;28;20046;-69
2022/05/31 05:44:53;;;;;;;6.97;4.00;;;;;;;13.33;77.20;99825.31;5060044;28;20139;-68
2022/05/31 05:47:17;;;;;;;8.43;4.38;;;;;;;13.38;76.38;99822.28;5044586;28;20032;-67
2022/05/31 05:49:43;;;;;;;7.07;4.10;;;;;;;13.56;76.53;99825.28;5076630;28;20128;-67
2022/05/31 05:52:28;;;;;;;13.63;5.25;;;;;;;13.69;76.05;99823.31;5042714;28;20527;-68
2022/05/31 05:55:12;;;;;;;7.40;4.38;;;;;;;13.85;75.73;99817.56;5057783;28;20070;-69
2022/05/31 05:58:01;;;;;;;8.07;4.63;;;;;;;13.92;74.93;99816.94;4979007;28;20045;-65
2022/05/31 06:00:49;;;;;;;9.57;4.95;;;;;;;13.97;75.25;99819.25;4995327;28;20060;-66
2022/05/31 06:03:27;;;;;;;7.22;4.75;;;;;;;14.08;74.29;99819.22;4962534;28;20049;-65
2022/05/31 06:05:59;;;;;;;4.72;3.83;;;;;;;14.25;74.02;99824.00;4962374;28;20182;-67
2022/05/31 06:08:34;;;;;;;6.60;4.18;;;;;;;14.27;73.24;99815.84;4995247;28;20535;-65
2022/05/31 06:11:15;;;;;;;10.65;4.85;;;;;;;14.41;72.81;99820.94;4979041;28;20055;-66
2022/05/31 06:13:49;;;;;;;8.07;5.18;;;;;;;14.44;72.75;99821.53;4995291;28;20049;-66
2022/05/31 06:16:15;;;;;;;8.10;4.78;;;;;;;14.43;71.69;99814.47;4978755;28;20432;-65
2022/05/31 06:18:46;;;;;;;7.20;4.65;;;;;;;14.51;72.03;99824.53;4962070;28;20052;-66
2022/05/31 06:21:12;;;;;;;7.30;5.00;;;;;;;14.52;72.47;99818.19;4991868;28;20052;-65
2022/05/31 06:23:39;;;;;;;7.10;4.53;;;;;;;14.64;72.05;99808.25;4998032;28;20067;-67
2022/05/31 06:26:07;;;;;;;7.25;4.80;;;;;;;14.66;71.45;99808.97;4998015;28;20056;-66
2022/05/31 06:28:40;;;;;;;9.05;5.30;;;;;;;14.74;71.40;99817.19;5020761;28;20040;-65
2022/05/31 06:31:06;;;;;;;7.93;5.30;;;;;;;14.77;71.82;99827.69;5017669;28;20059;-64
2022/05/31 06:33:31;;;;;;;7.32;4.57;;;;;;;14.95;69.96;99825.22;5017673;28;20040;-66
2022/05/31 06:35:58;;;;;;;6.88;4.80;;;;;;;14.94;69.94;99818.16;5054148;28;20066;-68
2022/05/31 06:38:23;;;;;;;7.50;4.93;;;;;;;14.85;70.72;99817.97;5041863;28;20404;-65
2022/05/31 06:40:52;;;;;;;9.05;4.63;;;;;;;14.90;71.27;99831.84;5041893;28;20426;-66
2022/05/31 06:43:23;;;;;;;8.23;5.28;;;;;;;14.99;70.35;99822.16;5077024;28;20042;-66
2022/05/31 06:46:08;;;;;;;9.93;4.57;;;;;;;15.11;69.36;99820.25;5044279;28;20547;-67
2022/05/31 06:48:39;;;;;;;9.25;4.60;;;;;;;15.07;69.71;99822.34;5041869;28;20122;-66
2022/05/31 06:57:37;;;;;;;5.28;4.40;;;;;;;15.19;69.21;99812.34;5034207;28;20053;-68
2022/05/31 07:00:20;;;;;;;7.23;4.30;;;;;;;15.23;69.18;99816.47;5000457;28;20125;-65
2022/05/31 07:02:47;;;;;;;11.70;4.72;;;;;;;15.20;69.35;99814.06;5016909;28;20060;-65
2022/05/31 07:05:12;;;;;;;9.75;5.10;;;;;;;15.21;69.89;99810.38;5033801;28;20044;-65
2022/05/31 07:07:39;;;;;;;9.52;4.85;;;;;;;15.30;69.16;99823.00;4983777;28;20036;-65
2022/05/31 07:10:36;;;;;;;7.22;4.97;;;;;;;15.41;68.91;99809.47;4973908;28;20596;-64
2022/05/31 07:13:17;;;;;;;8.73;4.47;;;;;;;15.39;69.39;99814.13;4974309;28;20062;-65
2022/05/31 07:16:20;;;;;;;5.90;4.88;;;;;;;15.50;68.97;99808.66;4918938;28;20050;-65
2022/05/31 07:18:45;;;;;;;7.97;4.07;;;;;;;15.57;68.41;99809.84;4934700;28;20049;-65
2022/05/31 07:21:11;;;;;;;8.02;5.03;;;;;;;15.62;68.59;99812.09;4904600;28;20477;-65
2022/05/31 07:23:38;;;;;;;10.50;4.78;;;;;;;15.56;68.49;99810.84;4936741;28;20251;-64
2022/05/31 07:26:04;;;;;;;6.57;4.00;;;;;;;15.69;67.78;99812.44;4919470;28;20049;-65
2022/05/31 07:28:29;;;;;;;5.82;4.22;;;;;;;15.84;68.18;99809.19;4929409;28;20125;-66
2022/05/31 07:31:00;;;;;;;6.10;4.60;;;;;;;16.20;67.87;99820.25;4974253;28;20504;-65
2022/05/31 07:33:26;;;;;;;5.90;4.13;;;;;;;16.66;65.75;99796.19;4957135;28;20136;-66
2022/05/31 07:35:52;;;;;;;5.38;4.25;;;;;;;16.88;64.15;99804.94;4925060;28;20041;-64
2022/05/31 07:38:23;;;;;;;5.65;3.83;;;;;;;16.96;64.85;99799.66;4973687;28;20056;-66
2022/05/31 07:40:48;;;;;;;10.98;5.03;;;;;;;17.08;64.26;99795.78;4973362;28;20278;-66
2022/05/31 07:43:13;;;;;;;8.32;4.15;;;;;;;17.19;63.80;99803.69;4956956;28;20413;-65
2022/05/31 07:45:39;;;;;;;7.18;4.80;;;;;;;17.33;62.86;99803.19;4967580;28;20049;-66
2022/05/31 07:48:06;;;;;;;6.43;4.55;;;;;;;17.34;62.97;99796.81;5054928;27;20592;-66
2022/05/31 07:50:31;;;;;;;8.23;4.68;;;;;;;17.35;61.88;99800.38;5077270;27;20703;-66
2022/05/31 07:53:15;;;;;;;7.80;5.15;;;;;;;17.19;62.98;99795.59;5062890;27;20047;-67
2022/05/31 07:56:09;;;;;;;9.60;4.85;;;;;;;17.09;63.11;99807.41;5063003;27;20053;-66
2022/05/31 07:58:53;;;;;;;10.23;4.78;;;;;;;16.98;63.08;99805.75;5080231;27;20125;-67
2022/05/31 08:01:41;;;;;;;8.32;4.78;;;;;;;16.93;63.56;99810.75;5076914;27;20067;-66
2022/05/31 08:04:18;;;;;;;8.35;4.93;;;;;;;16.83;63.89;99813.44;5077571;27;20065;-68
2022/05/31 08:06:44;;;;;;;9.75;4.65;;;;;;;16.77;64.48;99810.47;5060522;27;20086;-69
2022/05/31 08:09:09;;;;;;;10.45;7.07;;;;;;;16.70;64.77;99808.34;5077260;27;20043;-67
2022/05/31 08:11:34;;;;;;;10.05;5.72;;;;;;;16.69;64.79;99817.44;5095241;27;20038;-65
2022/05/31 08:13:59;;;;;;;9.70;5.05;;;;;;;16.55;64.91;99817.00;5095280;27;20043;-67
2022/05/31 08:16:26;;;;;;;9.88;5.75;;;;;;;16.39;65.66;99820.25;5095647;27;20042;-66
2022/05/31 08:18:52;;;;;;;8.55;5.55;;;;;;;16.23;66.61;99820.00;5077788;27;20047;-65
2022/05/31 08:21:21;;;;;;;10.00;5.90;;;;;;;16.19;66.80;99811.34;5096192;27;20035;-65
2022/05/31 08:23:46;;;;;;;8.88;5.82;;;;;;;16.24;66.04;99803.72;5077708;27;20039;-65
2022/05/31 08:26:11;;;;;;;10.68;5.63;;;;;;;16.12;67.19;99807.53;5060460;27;20099;-65
2022/05/31 08:28:36;;;;;;;10.40;6.93;;;;;;;16.19;66.59;99803.28;5056894;28;20521;-66
2022/05/31 08:31:05;;;;;;;11.10;6.72;;;;;;;16.21;67.18;99803.13;5075203;28;20047;-65
2022/05/31 08:33:30;;;;;;;11.57;6.65;;;;;;;16.20;66.59;99812.19;5057022;28;20067;-65
2022/05/31 08:35:55;;;;;;;10.25;6.53;;;;;;;16.16;66.90;99811.63;5023451;28;20147;-65
2022/05/31 08:38:22;;;;;;;13.02;7.38;;;;;;;16.15;66.86;99803.69;5040147;28;20509;-65
2022/05/31 08:41:30;;;;;;;12.52;8.48;;;;;;;16.34;66.45;99814.47;5074940;28;20421;-65
2022/05/31 08:44:17;;;;;;;12.00;8.38;;;;;;;16.25;66.83;99801.88;5046896;28;20040;-67
2022/05/31 08:47:09;;;;;;;12.10;8.55;;;;;;;16.30;66.39;99808.50;5075046;28;20090;-65
2022/05/31 08:53:21;;;;;;;14.23;9.77;;;;;;;16.43;65.84;99804.69;5055805;28;20465;-65
2022/05/31 08:58:47;;;;;;;10.50;7.90;;;;;;;16.79;65.62;99803.09;5056856;28;20095;-66
2022/05/31 09:01:16;;;;;;;13.13;8.38;;;;;;;16.82;64.96;99798.25;5056430;28;20051;-66
2022/05/31 09:03:49;;;;;;;10.60;7.93;;;;;;;16.83;64.84;99799.97;5074759;28;20051;-66
2022/05/31 09:06:21;;;;;;;13.30;8.57;;;;;;;16.69;65.62;99800.44;5039622;28;20070;-67
2022/05/31 09:09:09;;;;;;;11.63;7.43;;;;;;;16.67;65.39;99803.28;5074615;28;20051;-66
2022/05/31 09:11:46;;;;;;;14.65;7.70;;;;;;;16.63;65.00;99791.09;5056684;28;20051;-67
2022/05/31 09:14:17;;;;;;;9.30;6.93;;;;;;;16.73;64.60;99796.44;5039574;28;20051;-66
2022/05/31 09:16:51;;;;;;;10.50;6.68;;;;;;;16.70;64.43;99796.75;5056429;28;20050;-67
2022/05/31 09:19:26;;;;;;;10.27;7.38;;;;;;;16.65;64.96;99793.63;5074642;28;20039;-67
2022/05/31 09:21:52;;;;;;;12.98;7.85;;;;;;;16.63;65.31;99796.47;5056651;28;20036;-67
2022/05/31 09:24:20;;;;;;;8.93;6.65;;;;;;;16.71;64.75;99798.44;5039811;28;20536;-65
2022/05/31 09:27:03;;;;;;;11.52;6.30;;;;;;;16.70;64.98;99796.75;5074464;28;20495;-67
2022/05/31 09:29:34;;;;;;;9.73;6.85;;;;;;;16.77;64.33;99803.25;5056779;28;20111;-64
2022/05/31 09:32:17;;;;;;;13.57;8.80;;;;;;;16.86;64.21;99802.38;5056302;28;20112;-66
2022/05/31 09:35:17;;;;;;;14.45;8.13;;;;;;;16.77;64.40;99803.25;5056832;28;20059;-66
2022/05/31 09:38:05;;;;;;;10.00;6.65;;;;;;;16.77;64.02;99800.56;5031817;28;20052;-66
2022/05/31 09:40:43;;;;;;;9.85;6.43;;;;;;;16.72;64.70;99801.97;5024087;28;20121;-66
2022/05/31 09:43:24;;;;;;;8.40;6.30;;;;;;;16.77;64.51;99813.16;5018194;28;20522;-67
2022/05/31 09:45:58;;;;;;;7.75;5.53;;;;;;;16.76;64.39;99804.25;5042977;28;20060;-66
2022/05/31 09:48:23;;;;;;;10.25;5.72;;;;;;;16.69;64.16;99809.38;5025644;28;20578;-67
2022/05/31 09:50:48;;;;;;;8.63;6.05;;;;;;;16.49;64.75;99804.09;5010730;28;20415;-66
2022/05/31 09:59:35;;;;;;;9.43;6.55;;;;;;;16.52;64.22;99809.19;5017776;28;20044;-66
2022/05/31 10:02:35;;;;;;;6.63;5.45;;;;;;;16.49;64.49;99806.78;4962599;28;20593;-73
2022/05/31 10:05:21;;;;;;;9.57;6.15;;;;;;;16.51;64.95;99802.13;4933352;28;20211;-73
2022/05/31 10:07:46;;;;;;;12.00;6.18;;;;;;;16.43;65.18;99808.22;4969169;28;20050;-72
2022/05/31 10:10:15;;;;;;;14.05;6.03;;;;;;;16.43;65.52;99810.06;4940015;28;20580;-72
2022/05/31 10:12:58;;;;;;;8.82;6.40;;;;;;;16.50;64.89;99811.19;4956121;28;20070;-72
2022/05/31 10:15:49;;;;;;;9.10;6.18;;;;;;;16.43;65.45;99810.06;4953496;28;20090;-74
2022/05/31 10:18:43;;;;;;;8.32;5.85;;;;;;;16.39;66.32;99805.94;4956700;28;20592;-73
2022/05/31 10:21:09;;;;;;;11.70;6.22;;;;;;;16.41;65.52;99801.28;4958367;28;20050;-72
2022/05/31 10:23:45;;;;;;;7.78;5.60;;;;;;;16.38;65.55;99820.41;4942329;28;20203;-73
2022/05/31 10:26:32;;;;;;;7.47;5.82;;;;;;;16.28;65.61;99801.56;4946413;28;20058;-73
2022/05/31 10:29:33;;;;;;;7.65;5.60;;;;;;;16.20;65.82;99804.97;4940487;28;20064;-74
2022/05/31 10:32:31;;;;;;;8.48;5.88;;;;;;;16.19;66.22;99800.59;4983487;28;20096;-73
2022/05/31 10:35:09;;;;;;;10.02;6.22;;;;;;;16.22;65.96;99792.25;4998767;28;20118;-71
2022/05/31 10:37:34;;;;;;;8.00;5.68;;;;;;;16.14;66.52;99802.84;4998796;28;20039;-72
2022/05/31 10:40:14;;;;;;;8.95;5.18;;;;;;;16.17;66.49;99804.41;5034628;28;20075;-73
2022/05/31 10:42:44;;;;;;;11.98;6.40;;;;;;;16.17;66.77;99802.56;5078088;28;20827;-73
2022/05/31 10:45:26;;;;;;;9.20;5.97;;;;;;;16.16;66.95;99800.00;5042327;28;20063;-72
2022/05/31 10:47:55;;;;;;;11.63;7.05;;;;;;;16.07;67.48;99803.56;5042204;28;20122;-72
2022/05/31 10:50:20;;;;;;;15.48;6.43;;;;;;;16.07;67.56;99815.16;5059121;28;20584;-71
2022/05/31 10:53:04;;;;;;;9.02;6.00;;;;;;;16.19;67.67;99814.03;5059530;28;20126;-70
2022/05/31 10:55:47;;;;;;;8.55;5.70;;;;;;;16.22;67.65;99818.28;5077496;28;20100;-71
2022/05/31 10:58:46;;;;;;;9.32;6.63;;;;;;;16.18;67.70;99828.47;5077613;28;20039;-71
2022/05/31 11:01:29;;;;;;;8.32;5.90;;;;;;;16.10;68.13;99816.72;5060385;28;20103;-72
2022/05/31 11:04:39;;;;;;;8.95;6.63;;;;;;;15.97;69.14;99812.47;5078406;28;20067;-71
2022/05/31 11:07:13;;;;;;;14.13;7.40;;;;;;;15.84;69.59;99819.09;5042417;28;20060;-70
2022/05/31 11:13:10;;;;;;;8.35;6.05;;;;;;;15.80;70.23;99818.50;5022782;28;20051;-73
2022/05/31 11:15:50;;;;;;;8.45;6.38;;;;;;;15.81;70.85;99822.91;5041237;28;20068;-75
2022/05/31 11:18:27;;;;;;;8.15;6.90;;;;;;;15.86;70.82;99822.50;5014947;28;20040;-73
2022/05/31 11:21:32;;;;;;;6.93;6.22;;;;;;;16.03;70.85;99834.41;5049042;28;20616;-72
2022/05/31 11:24:36;;;;;;;15.00;8.25;;;;;;;16.11;69.88;99832.72;5011124;28;20053;-71
2022/05/31 11:27:23;;;;;;;8.98;6.18;;;;;;;16.18;69.51;99833.84;5029007;28;20083;-72
2022/05/31 11:30:17;;;;;;;12.05;7.40;;;;;;;16.20;69.01;99826.50;4991632;28;20049;-72
2022/05/31 11:32:49;;;;;;;11.30;7.55;;;;;;;16.24;69.39;99827.94;4971445;28;20101;-71
2022/05/31 11:35:52;;;;;;;8.95;6.90;;;;;;;16.24;69.36;99827.94;4951021;28;20576;-72
2022/05/31 11:38:51;;;;;;;14.45;8.38;;;;;;;16.36;69.30;99830.47;4965079;28;20070;-75
2022/05/31 11:41:42;;;;;;;13.52;7.70;;;;;;;16.42;68.92;99825.34;4951093;28;20050;-75
2022/05/31 11:44:26;;;;;;;12.05;7.45;;;;;;;16.51;69.13;99829.03;4952623;28;20042;-70
2022/05/31 11:47:03;;;;;;;10.75;7.22;;;;;;;16.59;68.69;99830.00;4970268;28;20050;-71
2022/05/31 11:49:51;;;;;;;9.90;7.18;;;;;;;16.72;68.45;99827.06;4971300;28;20086;-72
2022/05/31 11:52:45;;;;;;;10.20;7.22;;;;;;;16.88;68.08;99832.72;4967362;28;20065;-72
2022/05/31 11:55:30;;;;;;;10.67;7.40;;;;;;;17.08;67.43;99832.66;4950387;28;20050;-72
2022/05/31 11:58:04;;;;;;;12.55;7.07;;;;;;;17.16;67.23;99830.91;4948137;28;20464;-70
2022/05/31 12:00:38;;;;;;;13.43;7.20;;;;;;;17.29;66.55;99838.66;4952652;28;20054;-73
2022/05/31 12:03:19;;;;;;;10.23;7.13;;;;;;;17.25;66.58;99831.91;4950941;28;20453;-74
2022/05/31 12:05:50;;;;;;;12.07;8.25;;;;;;;17.20;67.49;99836.88;4966080;28;20157;-71
2022/05/31 12:08:57;;;;;;;10.52;7.75;;;;;;;17.31;67.19;99840.22;5009993;28;20078;-75
2022/05/31 12:11:40;;;;;;;9.63;6.30;;;;;;;17.48;66.99;99830.53;5041990;28;20054;-72
2022/05/31 12:14:09;;;;;;;11.75;7.30;;;;;;;17.43;66.89;99832.81;5017828;28;20139;-74
2022/05/31 12:16:36;;;;;;;12.45;7.55;;;;;;;17.40;66.70;99839.31;5028822;28;20088;-74
2022/05/31 12:19:25;;;;;;;12.13;7.47;;;;;;;17.48;66.55;99838.63;5035537;28;20036;-72
2022/05/31 12:21:56;;;;;;;12.65;7.53;;;;;;;17.32;66.75;99844.63;5034111;28;20058;-74
2022/05/31 12:24:28;;;;;;;10.95;7.60;;;;;;;17.22;67.39;99829.50;5041064;28;20064;-69
2022/05/31 12:27:21;;;;;;;9.70;7.30;;;;;;;17.15;67.80;99840.00;5034135;28;20051;-75
2022/05/31 12:29:46;;;;;;;9.93;7.22;;;;;;;17.14;67.65;99832.94;5012920;28;20052;-76
2022/05/31 12:32:37;;;;;;;10.52;6.93;;;;;;;17.31;67.48;99836.69;5036896;28;20424;-77
2022/05/31 12:35:05;;;;;;;12.00;7.45;;;;;;;17.30;67.89;99832.28;5036936;28;20114;-76
2022/05/31 12:38:10;;;;;;;11.77;7.05;;;;;;;17.34;67.48;99831.84;5014028;28;20036;-78